Wequetonsing, Michigan
Current Conditions -  °F | °C
As of 6:35 AM on Thursday 18 Dec 2014 (Local Time) from KMGN Reporting Station
Overcast Overcast  
Wind Chill: 18°   Ceiling: 1200
Heat Index: 24°   Visibility: 10mi
Dew Point: 20°   Wind: 5mph
Humidity: 85%   Direction: 20°NNE
Pressure: 30.21"   Gusts: NA
Location:  45.5213°N, 84.9993°W
Report Text: KMGN 181135Z AUTO 02004KT 10SM OVC012 M04/M06 A3021 RMK AO2 T10461067
Loading
Personal Weather Stations






























Interactive Weather Map New forecast layout! Learn more

10-Day Weather Forecast

Advertisements
Track Severe Weather on mobile